ADDS TAF Board (Experimental) INFO Settings
IDs: Format: Expanded Condensed

KPHL - Philadelphia Intl, PA, US

Issued at 0912 UTC 29 Jul 2015
Updated at: 0928 UTC 29 Jul 2015
Time0854Z 29/10Z 29/11Z 29/12Z 29/13Z 29/14Z 29/15Z 29/16Z 29/17Z 29/18Z 29/19Z 29/20Z 29/21Z 29/22Z
Type OBS PRVL PRVL PRVL PRVL PRVL PRVL PRVL PRVL PRVL PRVL PRVL PRVL PRVL
VIS 10 >6 >6 >6 >6 >6 >6 >6 >6 >6 >6 >6 >6 >6
CIG -- -- -- -- -- -- -- -- -- -- -- -- -- --
Cover FEW FEW FEW FEW FEW FEW FEW SCT SCT SCT SCT SCT SCT SCT
FltCat VFR VFR VFR VFR VFR VFR VFR VFR VFR VFR VFR VFR VFR VFR
WX -- -- -- -- -- -- -- -- -- -- -- -- -- --
WDir VRB 220 220 220 220 220 220 220 220 220 220 220 220 220
WSpd 0 3 3 3 3 3 3 9 9 9 9 9 9 9
WGst -- -- -- -- -- -- -- -- -- -- -- -- -- --
R08/26
XWnd VRB -2 -2 -2 -2 -2 -2 -5 -5 -5 -5 -5 -5 -5
HWnd VRB -2 -2 -2 -2 -2 -2 -7 -7 -7 -7 -7 -7 -7
R09/27
XWnd VRB -2 -2 -2 -2 -2 -2 -5 -5 -5 -5 -5 -5 -5
HWnd VRB -2 -2 -2 -2 -2 -2 -7 -7 -7 -7 -7 -7 -7
R17/35
XWnd VRB -3 -3 -3 -3 -3 -3 -8 -8 -8 -8 -8 -8 -8
HWnd VRB 1 1 1 1 1 1 4 4 4 4 4 4 4

NOTE: TEMPO conditions in [brackets]. Keep in mind TEMPO conditions might be better (lower impact) than prevailing conditions.

Raw TAF
KPHL 290912Z 2909/3012 22003KT P6SM FEW250
  FM291600 22009KT P6SM SCT060
  FM300000 21008KT P6SM FEW250
  FM300900 20006KT 5SM HZ BKN060


Raw METAR
KPHL 290854Z 00000KT 10SM FEW250 26/22 A2997 RMK AO2 SLP150 T02610217 55004 $
KPHL 290754Z 25003KT 10SM SCT250 26/23 A2997 RMK AO2 SLP148 T02610233 $
KPHL 290654Z 24004KT 10SM FEW250 26/23 A2998 RMK AO2 SLP152 T02610228 $

METAR Board
Radar Display
Forecast Discussion

TAF Board Legend

Potential Impact
Threat None Slight Moderate High
Visibility (sm) ≥5.1 5.1>X≥3 3>X≥1 <1
Ceiling (100 ft) ≥30.1 30.1>X≥10 10>X≥5 <5
Wind Speed (kt) <10 10≤X<20 20≤X<30 ≥30
Wind Gust (kt) <15 15≤X<25 25≤X<35 ≥35
Weather No Wx Reported VCTS,-TS,-FZRA,SN TS,FZRA +TS,+FZRA,+SN